Time;durP1;ratioP1;P1;durP2;ratioP2;P2;SDS_P1;SDS_P2;PMS_P1;PMS_P2;Temp;Humidity;BMP_temperature;BMP_pressure;BME280_temperature;BME280_humidity;BME280_pressure;Samples;Min_cycle;Max_cycle;Signal;HPM_P1;HPM_P2
2022/12/11 00:01:54;;;;;;;;;;;;;;;;;;5029494;28;20482;-59
2022/12/11 00:04:22;;;;;;;;;;;;;;;;;;5029895;28;20030;-60
2022/12/11 00:06:50;;;;;;;;;;;;;;;;;;5027761;28;19916;-60
2022/12/11 00:09:18;;;;;;;;;;;;;;;;;;4997540;28;19959;-60
2022/12/11 00:11:43;;;;;;;;;;;;;;;;;;5010394;28;20019;-59
2022/12/11 00:14:11;;;;;;;;;;;;;;;;;;5015233;28;21482;-59
2022/12/11 00:16:45;;;;;;;;;;;;;;;;;;5025293;28;19920;-59
2022/12/11 00:19:13;;;;;;;;;;;;;;;;;;5013140;28;20024;-61
2022/12/11 00:21:38;;;;;;;;;;;;;;;;;;5009452;28;19917;-58
2022/12/11 00:24:05;;;;;;;;;;;;;;;;;;5028943;28;19959;-59
2022/12/11 00:26:33;;;;;;;;;;;;;;;;;;5030094;28;19920;-59
2022/12/11 00:28:58;;;;;;;;;;;;;;;;;;5029040;28;19970;-58
2022/12/11 00:31:28;;;;;;;;;;;;;;;;;;5028764;28;19923;-58
2022/12/11 00:37:12;;;;;;;;;;;;;;;;;;5030523;28;20013;-59
2022/12/11 00:39:38;;;;;;;;;;;;;;;;;;5016808;28;19920;-59
2022/12/11 00:42:06;;;;;;;;;;;;;;;;;;5030701;28;19924;-59
2022/12/11 00:44:32;;;;;;;;;;;;;;;;;;5011419;28;19928;-60
2022/12/11 00:46:59;;;;;;;;;;;;;;;;;;5024409;28;19920;-59
2022/12/11 00:49:24;;;;;;;;;;;;;;;;;;5028534;28;19921;-61
2022/12/11 00:51:50;;;;;;;;;;;;;;;;;;5008701;28;19921;-60
2022/12/11 00:54:16;;;;;;;;;;;;;;;;;;5029652;28;20776;-61
2022/12/11 00:56:45;;;;;;;;;;;;;;;;;;5013452;28;19916;-60
2022/12/11 00:59:13;;;;;;;;;;;;;;;;;;5011843;28;19916;-60
2022/12/11 01:05:00;;;;;;;;;;;;;;;;;;5027176;28;19927;-59
2022/12/11 01:07:25;;;;;;;;;;;;;;;;;;5010407;28;20035;-59
2022/12/11 01:12:37;;;;;;;;;;;;;;;;;;5032314;28;19931;-60
2022/12/11 01:15:05;;;;;;;;;;;;;;;;;;5031026;28;19928;-59
2022/12/11 01:17:30;;;;;;;;;;;;;;;;;;5028693;28;19928;-60
2022/12/11 01:19:58;;;;;;;;;;;;;;;;;;5032770;28;19931;-61
2022/12/11 01:22:26;;;;;;;;;;;;;;;;;;5028219;28;19928;-59
2022/12/11 01:24:54;;;;;;;;;;;;;;;;;;5012190;28;20009;-60
2022/12/11 01:27:20;;;;;;;;;;;;;;;;;;5030568;28;19922;-60
2022/12/11 01:29:45;;;;;;;;;;;;;;;;;;5030914;28;19970;-60
2022/12/11 01:32:10;;;;;;;;;;;;;;;;;;5031971;28;19921;-60
2022/12/11 01:34:36;;;;;;;;;;;;;;;;;;5035308;28;20575;-59
2022/12/11 01:37:04;;;;;;;;;;;;;;;;;;5016565;28;20075;-60
2022/12/11 01:39:29;;;;;;;;;;;;;;;;;;5034301;28;19920;-59
2022/12/11 01:41:57;;;;;;;;;;;;;;;;;;5015499;28;20002;-59
2022/12/11 01:44:23;;;;;;;;;;;;;;;;;;5036534;28;22059;-60
2022/12/11 01:46:48;;;;;;;;;;;;;;;;;;5030727;28;20218;-58
2022/12/11 01:49:16;;;;;;;;;;;;;;;;;;5014680;28;19928;-59
2022/12/11 01:51:42;;;;;;;;;;;;;;;;;;5033192;28;19916;-59
2022/12/11 01:54:09;;;;;;;;;;;;;;;;;;5030890;28;20376;-59
2022/12/11 01:56:35;;;;;;;;;;;;;;;;;;5029446;28;19925;-59
2022/12/11 01:59:01;;;;;;;;;;;;;;;;;;5014969;28;20876;-59
2022/12/11 02:01:26;;;;;;;;;;;;;;;;;;5035645;28;20387;-59
2022/12/11 02:03:54;;;;;;;;;;;;;;;;;;5032540;28;19924;-58
2022/12/11 02:06:19;;;;;;;;;;;;;;;;;;5017030;28;20554;-59
2022/12/11 02:08:45;;;;;;;;;;;;;;;;;;5034351;28;20047;-59
2022/12/11 02:11:11;;;;;;;;;;;;;;;;;;5034694;28;19924;-58
2022/12/11 02:13:36;;;;;;;;;;;;;;;;;;5030856;28;19916;-58
2022/12/11 02:16:01;;;;;;;;;;;;;;;;;;5049165;28;20397;-59
2022/12/11 02:18:27;;;;;;;;;;;;;;;;;;5033186;28;20475;-58
2022/12/11 02:20:52;;;;;;;;;;;;;;;;;;5046716;28;19952;-59
2022/12/11 02:23:19;;;;;;;;;;;;;;;;;;5028693;28;19925;-58
2022/12/11 02:25:45;;;;;;;;;;;;;;;;;;5051814;28;20330;-58
2022/12/11 02:28:15;;;;;;;;;;;;;;;;;;5047222;28;19919;-59
2022/12/11 02:30:41;;;;;;;;;;;;;;;;;;5051714;28;20421;-59
2022/12/11 02:33:10;;;;;;;;;;;;;;;;;;5052301;28;19920;-59
2022/12/11 02:38:53;;;;;;;;;;;;;;;;;;5049896;28;19928;-60
2022/12/11 02:41:18;;;;;;;;;;;;;;;;;;5027658;28;20468;-61
2022/12/11 02:43:44;;;;;;;;;;;;;;;;;;5029599;28;20309;-59
2022/12/11 02:46:12;;;;;;;;;;;;;;;;;;5050252;28;21732;-59
2022/12/11 02:48:40;;;;;;;;;;;;;;;;;;5048630;28;19920;-59
2022/12/11 02:51:08;;;;;;;;;;;;;;;;;;5051030;28;19977;-59
2022/12/11 02:53:36;;;;;;;;;;;;;;;;;;5047728;28;19963;-59
2022/12/11 02:56:03;;;;;;;;;;;;;;;;;;5049421;28;20634;-59
2022/12/11 02:58:29;;;;;;;;;;;;;;;;;;5052222;28;21426;-59
2022/12/11 03:00:54;;;;;;;;;;;;;;;;;;5027856;28;19924;-59
2022/12/11 03:03:19;;;;;;;;;;;;;;;;;;5051230;28;20196;-59
2022/12/11 03:05:45;;;;;;;;;;;;;;;;;;5034968;28;19942;-59
2022/12/11 03:08:10;;;;;;;;;;;;;;;;;;5034828;28;19920;-58
2022/12/11 03:10:41;;;;;;;;;;;;;;;;;;5049574;28;20472;-60
2022/12/11 03:13:08;;;;;;;;;;;;;;;;;;5051307;28;19970;-58
2022/12/11 03:15:33;;;;;;;;;;;;;;;;;;5050031;28;20218;-59
2022/12/11 03:17:59;;;;;;;;;;;;;;;;;;5042321;28;20130;-59
2022/12/11 03:20:24;;;;;;;;;;;;;;;;;;5050108;28;20452;-58
2022/12/11 03:22:52;;;;;;;;;;;;;;;;;;5047479;28;19977;-59
2022/12/11 03:25:20;;;;;;;;;;;;;;;;;;5051202;28;19960;-59
2022/12/11 03:27:48;;;;;;;;;;;;;;;;;;5043951;28;19920;-59
2022/12/11 03:30:13;;;;;;;;;;;;;;;;;;5031178;28;19927;-59
2022/12/11 03:32:39;;;;;;;;;;;;;;;;;;5030516;28;19925;-59
2022/12/11 03:35:04;;;;;;;;;;;;;;;;;;5014360;28;19920;-59
2022/12/11 03:37:30;;;;;;;;;;;;;;;;;;5050654;28;19927;-59
2022/12/11 03:39:55;;;;;;;;;;;;;;;;;;5029789;28;19936;-59
2022/12/11 03:42:21;;;;;;;;;;;;;;;;;;5050428;28;20223;-58
2022/12/11 03:44:47;;;;;;;;;;;;;;;;;;5049462;28;19923;-59
2022/12/11 03:47:12;;;;;;;;;;;;;;;;;;5048301;28;20023;-59
2022/12/11 03:49:42;;;;;;;;;;;;;;;;;;5048830;28;19927;-59
2022/12/11 03:52:09;;;;;;;;;;;;;;;;;;5029138;28;20460;-60
2022/12/11 03:54:35;;;;;;;;;;;;;;;;;;5030209;28;19927;-60
2022/12/11 03:57:00;;;;;;;;;;;;;;;;;;5048121;28;19916;-60
2022/12/11 03:59:28;;;;;;;;;;;;;;;;;;5035169;28;19997;-60
2022/12/11 04:01:54;;;;;;;;;;;;;;;;;;5029652;28;19920;-60
2022/12/11 04:04:19;;;;;;;;;;;;;;;;;;5048639;28;21488;-58
2022/12/11 04:06:47;;;;;;;;;;;;;;;;;;5051647;28;20666;-59
2022/12/11 04:09:14;;;;;;;;;;;;;;;;;;5043063;28;19924;-61
2022/12/11 04:11:41;;;;;;;;;;;;;;;;;;5030084;28;19924;-61
2022/12/11 04:16:53;;;;;;;;;;;;;;;;;;5019473;28;20010;-59
2022/12/11 04:24:49;;;;;;;;;;;;;;;;;;5029433;28;19923;-60
2022/12/11 04:27:47;;;;;;;;;;;;;;;;;;5014064;28;19912;-59
2022/12/11 04:30:02;;;;;;;;;;;;;;;;;;5032569;28;19977;-60
2022/12/11 04:32:27;;;;;;;;;;;;;;;;;;5029523;28;20040;-59
2022/12/11 04:34:57;;;;;;;;;;;;;;;;;;5032898;28;20409;-59
2022/12/11 04:37:23;;;;;;;;;;;;;;;;;;5031178;28;20460;-59
2022/12/11 04:39:48;;;;;;;;;;;;;;;;;;5015220;28;20443;-59
2022/12/11 04:42:16;;;;;;;;;;;;;;;;;;5019046;28;19948;-59
2022/12/11 04:44:44;;;;;;;;;;;;;;;;;;5018219;28;19920;-59
2022/12/11 04:47:09;;;;;;;;;;;;;;;;;;5017823;28;19924;-59
2022/12/11 04:49:34;;;;;;;;;;;;;;;;;;5002532;28;19949;-59
2022/12/11 04:52:00;;;;;;;;;;;;;;;;;;5029973;28;19931;-59
2022/12/11 04:54:27;;;;;;;;;;;;;;;;;;5014614;28;19960;-59
2022/12/11 04:56:52;;;;;;;;;;;;;;;;;;5030099;28;19969;-59
2022/12/11 04:59:20;;;;;;;;;;;;;;;;;;5033588;28;19921;-59
2022/12/11 05:01:45;;;;;;;;;;;;;;;;;;5033191;28;19920;-59
2022/12/11 05:04:15;;;;;;;;;;;;;;;;;;5016840;28;20409;-60
2022/12/11 05:06:40;;;;;;;;;;;;;;;;;;5034987;28;20432;-60
2022/12/11 05:09:05;;;;;;;;;;;;;;;;;;5038857;28;19977;-60
2022/12/11 05:11:31;;;;;;;;;;;;;;;;;;5032082;28;20337;-60
2022/12/11 05:13:56;;;;;;;;;;;;;;;;;;5049122;28;20627;-60
2022/12/11 05:16:22;;;;;;;;;;;;;;;;;;5049783;28;19924;-59
2022/12/11 05:18:47;;;;;;;;;;;;;;;;;;5031406;28;20023;-59
2022/12/11 05:21:13;;;;;;;;;;;;;;;;;;5049907;28;20005;-59
2022/12/11 05:23:39;;;;;;;;;;;;;;;;;;5046952;28;20394;-59
2022/12/11 05:26:04;;;;;;;;;;;;;;;;;;5047509;28;20402;-59
2022/12/11 05:28:32;;;;;;;;;;;;;;;;;;5023031;28;19977;-60
2022/12/11 05:30:57;;;;;;;;;;;;;;;;;;5035831;28;19920;-59
2022/12/11 05:33:22;;;;;;;;;;;;;;;;;;5035255;28;19966;-60
2022/12/11 05:35:47;;;;;;;;;;;;;;;;;;5049347;28;20009;-58
2022/12/11 05:38:13;;;;;;;;;;;;;;;;;;5048946;28;20393;-61
2022/12/11 05:40:38;;;;;;;;;;;;;;;;;;5047285;28;19925;-59
2022/12/11 05:43:04;;;;;;;;;;;;;;;;;;5045836;28;20009;-61
2022/12/11 05:45:29;;;;;;;;;;;;;;;;;;5036382;28;20558;-59
2022/12/11 05:47:54;;;;;;;;;;;;;;;;;;5050047;28;19947;-59
2022/12/11 05:50:22;;;;;;;;;;;;;;;;;;5049039;28;20291;-59
2022/12/11 05:52:47;;;;;;;;;;;;;;;;;;5046253;28;20318;-59
2022/12/11 05:55:13;;;;;;;;;;;;;;;;;;5047270;28;20068;-59
2022/12/11 05:57:39;;;;;;;;;;;;;;;;;;5049598;28;19919;-59
2022/12/11 06:00:06;;;;;;;;;;;;;;;;;;5034631;28;20905;-59
2022/12/11 06:02:32;;;;;;;;;;;;;;;;;;5047942;28;19947;-59
2022/12/11 06:05:00;;;;;;;;;;;;;;;;;;5033649;28;20346;-60
2022/12/11 06:07:25;;;;;;;;;;;;;;;;;;5048259;28;19983;-59
2022/12/11 06:09:50;;;;;;;;;;;;;;;;;;5028571;28;20468;-59
2022/12/11 06:12:15;;;;;;;;;;;;;;;;;;5031333;28;20235;-60
2022/12/11 06:14:43;;;;;;;;;;;;;;;;;;5029216;28;20223;-59
2022/12/11 06:17:09;;;;;;;;;;;;;;;;;;5015293;28;19917;-60
2022/12/11 06:19:34;;;;;;;;;;;;;;;;;;5024615;28;20457;-59
2022/12/11 06:22:00;;;;;;;;;;;;;;;;;;5010658;28;20518;-59
2022/12/11 06:27:44;;;;;;;;;;;;;;;;;;5031020;28;21428;-59
2022/12/11 06:30:12;;;;;;;;;;;;;;;;;;5014569;28;19920;-59
2022/12/11 06:32:40;;;;;;;;;;;;;;;;;;5032243;28;19927;-59
2022/12/11 06:35:08;;;;;;;;;;;;;;;;;;5028798;28;19921;-59
2022/12/11 06:37:36;;;;;;;;;;;;;;;;;;5031160;28;20401;-59
2022/12/11 06:40:01;;;;;;;;;;;;;;;;;;5016031;28;19916;-60
2022/12/11 06:42:28;;;;;;;;;;;;;;;;;;5026282;28;20402;-60
2022/12/11 06:44:58;;;;;;;;;;;;;;;;;;5032205;28;19962;-60
2022/12/11 06:47:23;;;;;;;;;;;;;;;;;;5028416;28;20632;-59
2022/12/11 06:49:51;;;;;;;;;;;;;;;;;;5032120;28;19917;-59
2022/12/11 06:52:16;;;;;;;;;;;;;;;;;;5031822;28;20083;-59
2022/12/11 06:54:42;;;;;;;;;;;;;;;;;;5029758;28;19929;-59
2022/12/11 06:57:11;;;;;;;;;;;;;;;;;;5030299;28;19920;-59
2022/12/11 06:59:37;;;;;;;;;;;;;;;;;;5027625;28;19964;-59
2022/12/11 07:02:02;;;;;;;;;;;;;;;;;;5030788;28;19939;-59
2022/12/11 07:04:29;;;;;;;;;;;;;;;;;;5031735;28;19920;-59
2022/12/11 07:06:54;;;;;;;;;;;;;;;;;;5027457;28;19925;-59
2022/12/11 07:09:21;;;;;;;;;;;;;;;;;;5018358;28;19974;-59
2022/12/11 07:11:47;;;;;;;;;;;;;;;;;;5046787;28;19928;-60
2022/12/11 07:14:15;;;;;;;;;;;;;;;;;;5032472;28;19951;-59
2022/12/11 07:16:43;;;;;;;;;;;;;;;;;;5050545;28;21412;-60
2022/12/11 07:19:08;;;;;;;;;;;;;;;;;;5045693;28;20378;-59
2022/12/11 07:21:33;;;;;;;;;;;;;;;;;;5050761;28;20627;-60
2022/12/11 07:23:58;;;;;;;;;;;;;;;;;;5030671;28;19928;-60
2022/12/11 07:26:26;;;;;;;;;;;;;;;;;;5017247;28;19967;-60
2022/12/11 07:28:51;;;;;;;;;;;;;;;;;;5048452;28;20099;-60
2022/12/11 07:31:19;;;;;;;;;;;;;;;;;;5052790;28;19916;-59
2022/12/11 07:33:46;;;;;;;;;;;;;;;;;;5034164;28;19920;-60
2022/12/11 07:36:13;;;;;;;;;;;;;;;;;;5050760;28;19916;-60
2022/12/11 07:38:40;;;;;;;;;;;;;;;;;;5049584;28;19962;-60
2022/12/11 07:41:06;;;;;;;;;;;;;;;;;;5051339;28;20343;-60
2022/12/11 07:43:31;;;;;;;;;;;;;;;;;;5037477;28;20044;-59
2022/12/11 07:45:59;;;;;;;;;;;;;;;;;;5039528;28;20021;-60
2022/12/11 07:48:25;;;;;;;;;;;;;;;;;;5018106;28;21508;-59
2022/12/11 07:50:52;;;;;;;;;;;;;;;;;;5048648;28;19955;-59
2022/12/11 07:53:17;;;;;;;;;;;;;;;;;;5027064;28;20010;-61
2022/12/11 07:55:45;;;;;;;;;;;;;;;;;;5042147;28;20811;-61
2022/12/11 07:58:10;;;;;;;;;;;;;;;;;;5049242;28;19920;-61
2022/12/11 08:00:36;;;;;;;;;;;;;;;;;;5034804;28;20354;-60
2022/12/11 08:03:01;;;;;;;;;;;;;;;;;;5053639;28;19987;-61
2022/12/11 08:05:26;;;;;;;;;;;;;;;;;;5030084;28;19961;-60
2022/12/11 08:07:56;;;;;;;;;;;;;;;;;;5023741;28;19924;-60
2022/12/11 08:10:22;;;;;;;;;;;;;;;;;;5014866;28;19926;-60
2022/12/11 08:12:49;;;;;;;;;;;;;;;;;;4947863;28;20002;-60
2022/12/11 08:15:16;;;;;;;;;;;;;;;;;;4947771;28;20021;-60
2022/12/11 08:17:42;;;;;;;;;;;;;;;;;;5029955;28;20158;-61
2022/12/11 08:20:08;;;;;;;;;;;;;;;;;;4948931;28;20854;-60
2022/12/11 08:22:38;;;;;;;;;;;;;;;;;;4949311;28;19930;-60
2022/12/11 08:25:09;;;;;;;;;;;;;;;;;;5020076;28;20571;-59
2022/12/11 08:27:34;;;;;;;;;;;;;;;;;;5013251;28;20076;-60
2022/12/11 08:30:02;;;;;;;;;;;;;;;;;;4947924;28;20334;-60
2022/12/11 08:32:30;;;;;;;;;;;;;;;;;;5027527;28;20082;-59
2022/12/11 08:34:55;;;;;;;;;;;;;;;;;;4953214;28;19968;-59
2022/12/11 08:37:21;;;;;;;;;;;;;;;;;;5015575;28;20052;-60
2022/12/11 08:39:47;;;;;;;;;;;;;;;;;;5032924;28;19972;-60
2022/12/11 08:42:12;;;;;;;;;;;;;;;;;;4955956;28;20176;-60
2022/12/11 08:44:38;;;;;;;;;;;;;;;;;;5021469;28;19944;-60
2022/12/11 08:47:05;;;;;;;;;;;;;;;;;;5024993;28;19953;-59
2022/12/11 08:49:31;;;;;;;;;;;;;;;;;;5036419;28;19992;-61
2022/12/11 08:51:59;;;;;;;;;;;;;;;;;;5025769;28;19923;-60
2022/12/11 08:54:24;;;;;;;;;;;;;;;;;;4956988;28;19984;-59
2022/12/11 08:56:52;;;;;;;;;;;;;;;;;;5021742;28;20013;-60
2022/12/11 08:59:20;;;;;;;;;;;;;;;;;;4958524;28;19922;-60
2022/12/11 09:01:48;;;;;;;;;;;;;;;;;;5009021;28;19959;-60
2022/12/11 09:04:13;;;;;;;;;;;;;;;;;;5024203;28;20434;-60
2022/12/11 09:06:38;;;;;;;;;;;;;;;;;;5021834;28;19922;-60
2022/12/11 09:09:06;;;;;;;;;;;;;;;;;;5027468;28;19929;-60
2022/12/11 09:11:32;;;;;;;;;;;;;;;;;;5051914;28;20434;-59
2022/12/11 09:13:57;;;;;;;;;;;;;;;;;;5037626;28;19920;-60
2022/12/11 09:16:22;;;;;;;;;;;;;;;;;;5051045;28;20251;-59
2022/12/11 09:18:51;;;;;;;;;;;;;;;;;;5054904;28;20597;-59
2022/12/11 09:21:19;;;;;;;;;;;;;;;;;;5053604;28;20087;-60
2022/12/11 09:23:44;;;;;;;;;;;;;;;;;;5036264;28;19924;-62
2022/12/11 09:26:10;;;;;;;;;;;;;;;;;;5051589;28;19928;-60
2022/12/11 09:28:35;;;;;;;;;;;;;;;;;;5050661;28;20005;-59
2022/12/11 09:31:03;;;;;;;;;;;;;;;;;;5029038;28;19928;-59
2022/12/11 09:33:31;;;;;;;;;;;;;;;;;;5019123;28;19935;-61
2022/12/11 09:35:56;;;;;;;;;;;;;;;;;;5048356;28;20411;-59
2022/12/11 09:38:21;;;;;;;;;;;;;;;;;;5048660;28;19920;-60
2022/12/11 09:40:47;;;;;;;;;;;;;;;;;;5028451;28;19920;-59
2022/12/11 09:43:12;;;;;;;;;;;;;;;;;;5046364;28;19924;-60
2022/12/11 09:45:40;;;;;;;;;;;;;;;;;;5028181;28;19932;-59
2022/12/11 09:48:08;;;;;;;;;;;;;;;;;;5015913;28;19923;-60
2022/12/11 09:50:33;;;;;;;;;;;;;;;;;;5016679;28;19920;-60
2022/12/11 09:52:59;;;;;;;;;;;;;;;;;;5029176;28;19921;-60
2022/12/11 09:55:24;;;;;;;;;;;;;;;;;;5044140;28;19931;-59
2022/12/11 09:57:49;;;;;;;;;;;;;;;;;;5017406;28;19973;-59
2022/12/11 10:00:15;;;;;;;;;;;;;;;;;;5045095;28;22176;-59
2022/12/11 10:02:42;;;;;;;;;;;;;;;;;;5044784;28;19924;-60
2022/12/11 10:05:10;;;;;;;;;;;;;;;;;;5044333;28;19927;-61
2022/12/11 10:07:35;;;;;;;;;;;;;;;;;;5034371;28;19916;-60
2022/12/11 10:10:03;;;;;;;;;;;;;;;;;;5016849;28;20468;-60
2022/12/11 10:12:31;;;;;;;;;;;;;;;;;;5032389;28;19967;-60
2022/12/11 10:14:56;;;;;;;;;;;;;;;;;;5029853;28;20280;-60
2022/12/11 10:17:22;;;;;;;;;;;;;;;;;;5045096;28;19950;-61
2022/12/11 10:19:47;;;;;;;;;;;;;;;;;;5024197;28;19923;-62
2022/12/11 10:22:12;;;;;;;;;;;;;;;;;;5045757;28;20083;-63
2022/12/11 10:24:40;;;;;;;;;;;;;;;;;;5027541;28;20440;-63
2022/12/11 10:27:05;;;;;;;;;;;;;;;;;;5053082;28;19920;-64
2022/12/11 10:29:31;;;;;;;;;;;;;;;;;;5051512;28;20396;-65
2022/12/11 10:31:59;;;;;;;;;;;;;;;;;;5031126;28;20529;-66
2022/12/11 10:34:26;;;;;;;;;;;;;;;;;;5047472;28;19943;-64
2022/12/11 10:36:51;;;;;;;;;;;;;;;;;;5037103;28;19924;-64
2022/12/11 10:39:17;;;;;;;;;;;;;;;;;;5046750;28;19920;-66
2022/12/11 10:41:44;;;;;;;;;;;;;;;;;;5033102;28;19920;-64
2022/12/11 10:44:09;;;;;;;;;;;;;;;;;;5020167;28;19924;-65
2022/12/11 10:46:36;;;;;;;;;;;;;;;;;;5052411;28;20080;-66
2022/12/11 10:49:03;;;;;;;;;;;;;;;;;;5014024;28;20019;-66
2022/12/11 10:51:29;;;;;;;;;;;;;;;;;;5049700;28;19924;-66
2022/12/11 10:53:54;;;;;;;;;;;;;;;;;;5049654;28;19931;-67
2022/12/11 10:56:20;;;;;;;;;;;;;;;;;;5045896;28;19921;-67
2022/12/11 10:58:45;;;;;;;;;;;;;;;;;;5043367;28;20425;-67
2022/12/11 11:01:10;;;;;;;;;;;;;;;;;;5030866;28;19928;-67
2022/12/11 11:03:36;;;;;;;;;;;;;;;;;;5036497;28;20512;-67
2022/12/11 11:06:01;;;;;;;;;;;;;;;;;;5035370;28;19920;-67
2022/12/11 11:08:31;;;;;;;;;;;;;;;;;;5045909;28;19937;-67
2022/12/11 11:10:56;;;;;;;;;;;;;;;;;;5052348;28;20051;-67
2022/12/11 11:13:22;;;;;;;;;;;;;;;;;;5043796;28;20319;-67
2022/12/11 11:15:47;;;;;;;;;;;;;;;;;;5048924;28;20406;-67
2022/12/11 11:18:13;;;;;;;;;;;;;;;;;;5044735;28;19916;-67
2022/12/11 11:20:38;;;;;;;;;;;;;;;;;;5050139;28;19960;-67
2022/12/11 11:23:04;;;;;;;;;;;;;;;;;;5048853;28;20036;-66
2022/12/11 11:25:29;;;;;;;;;;;;;;;;;;5046687;28;19927;-67
2022/12/11 11:27:54;;;;;;;;;;;;;;;;;;5031054;28;19982;-66
2022/12/11 11:30:20;;;;;;;;;;;;;;;;;;5049246;28;20155;-65
2022/12/11 11:32:45;;;;;;;;;;;;;;;;;;5050499;28;19966;-65
2022/12/11 11:35:11;;;;;;;;;;;;;;;;;;5050454;28;19920;-65
2022/12/11 11:37:38;;;;;;;;;;;;;;;;;;5047656;28;19965;-65
2022/12/11 11:40:04;;;;;;;;;;;;;;;;;;5049654;28;19922;-65
2022/12/11 11:42:29;;;;;;;;;;;;;;;;;;5044785;28;21387;-64
2022/12/11 11:44:55;;;;;;;;;;;;;;;;;;5044517;28;19920;-65
2022/12/11 11:47:22;;;;;;;;;;;;;;;;;;5033328;28;21568;-65
2022/12/11 11:49:48;;;;;;;;;;;;;;;;;;5026597;28;19924;-66
2022/12/11 11:52:13;;;;;;;;;;;;;;;;;;5032453;28;20182;-66
2022/12/11 11:54:41;;;;;;;;;;;;;;;;;;5047433;28;19928;-64
2022/12/11 11:57:06;;;;;;;;;;;;;;;;;;5046796;28;19920;-65
2022/12/11 11:59:32;;;;;;;;;;;;;;;;;;5049222;28;20553;-65
2022/12/11 12:01:57;;;;;;;;;;;;;;;;;;5018911;28;20524;-65
2022/12/11 12:04:23;;;;;;;;;;;;;;;;;;5049556;28;19951;-65
2022/12/11 12:06:48;;;;;;;;;;;;;;;;;;5050255;28;20023;-65
2022/12/11 12:09:13;;;;;;;;;;;;;;;;;;5042432;28;20501;-66
2022/12/11 12:11:41;;;;;;;;;;;;;;;;;;5014518;28;19931;-66
2022/12/11 12:14:09;;;;;;;;;;;;;;;;;;5043957;28;20042;-65
2022/12/11 12:16:34;;;;;;;;;;;;;;;;;;5049110;28;19921;-67
2022/12/11 12:19:02;;;;;;;;;;;;;;;;;;5032505;28;19927;-65
2022/12/11 12:21:27;;;;;;;;;;;;;;;;;;5047716;28;19964;-65
2022/12/11 12:23:53;;;;;;;;;;;;;;;;;;5048076;28;20050;-65
2022/12/11 12:26:21;;;;;;;;;;;;;;;;;;5048524;28;20007;-65
2022/12/11 12:28:47;;;;;;;;;;;;;;;;;;5031797;28;19938;-65
2022/12/11 12:31:13;;;;;;;;;;;;;;;;;;5031562;28;19923;-66
2022/12/11 12:33:38;;;;;;;;;;;;;;;;;;5045227;28;20182;-65
2022/12/11 12:36:04;;;;;;;;;;;;;;;;;;5016051;28;19920;-65
2022/12/11 12:38:34;;;;;;;;;;;;;;;;;;5044885;28;20171;-65
2022/12/11 12:40:59;;;;;;;;;;;;;;;;;;5046805;28;19955;-66
2022/12/11 12:43:24;;;;;;;;;;;;;;;;;;5036874;28;20855;-65
2022/12/11 12:45:53;;;;;;;;;;;;;;;;;;5034808;28;20093;-65
2022/12/11 12:48:18;;;;;;;;;;;;;;;;;;5043579;28;19923;-65
2022/12/11 12:50:43;;;;;;;;;;;;;;;;;;5011983;28;20047;-66
2022/12/11 12:53:09;;;;;;;;;;;;;;;;;;5045272;28;19965;-65
2022/12/11 12:55:34;;;;;;;;;;;;;;;;;;5044860;28;20541;-66
2022/12/11 12:58:03;;;;;;;;;;;;;;;;;;5047022;28;19925;-65
2022/12/11 13:00:30;;;;;;;;;;;;;;;;;;5048492;28;20110;-66
2022/12/11 13:02:59;;;;;;;;;;;;;;;;;;5049113;28;20667;-67
2022/12/11 13:05:24;;;;;;;;;;;;;;;;;;5049630;28;19920;-65
2022/12/11 13:07:50;;;;;;;;;;;;;;;;;;5032339;28;19977;-65
2022/12/11 13:10:18;;;;;;;;;;;;;;;;;;5050681;28;20125;-67
2022/12/11 13:12:43;;;;;;;;;;;;;;;;;;5029996;28;19921;-67
2022/12/11 13:15:13;;;;;;;;;;;;;;;;;;5034803;28;19935;-66
2022/12/11 13:17:38;;;;;;;;;;;;;;;;;;5029763;28;19930;-65
2022/12/11 13:20:03;;;;;;;;;;;;;;;;;;5030896;28;20015;-66
2022/12/11 13:22:29;;;;;;;;;;;;;;;;;;5042391;28;20946;-66
2022/12/11 13:24:54;;;;;;;;;;;;;;;;;;5029484;28;20252;-65
2022/12/11 13:27:19;;;;;;;;;;;;;;;;;;5018399;28;20385;-66
2022/12/11 13:29:46;;;;;;;;;;;;;;;;;;5052629;28;20700;-66
2022/12/11 13:32:11;;;;;;;;;;;;;;;;;;5050481;28;20582;-68
2022/12/11 13:34:39;;;;;;;;;;;;;;;;;;5036137;28;19953;-65
2022/12/11 13:37:04;;;;;;;;;;;;;;;;;;5051583;28;19920;-65
2022/12/11 13:39:30;;;;;;;;;;;;;;;;;;5041641;28;20533;-65
2022/12/11 13:41:55;;;;;;;;;;;;;;;;;;5038080;28;20444;-65
2022/12/11 13:44:21;;;;;;;;;;;;;;;;;;5024386;28;20362;-65
2022/12/11 13:46:50;;;;;;;;;;;;;;;;;;5052537;28;20154;-65
2022/12/11 13:49:15;;;;;;;;;;;;;;;;;;5033831;28;20399;-65
2022/12/11 13:51:40;;;;;;;;;;;;;;;;;;5040826;28;19921;-66
2022/12/11 13:54:08;;;;;;;;;;;;;;;;;;5033552;28;20070;-66
2022/12/11 13:56:33;;;;;;;;;;;;;;;;;;5050540;28;19995;-66
2022/12/11 13:58:58;;;;;;;;;;;;;;;;;;5045034;28;20080;-65
2022/12/11 14:01:26;;;;;;;;;;;;;;;;;;5032613;28;19927;-65
2022/12/11 14:03:51;;;;;;;;;;;;;;;;;;5032694;28;19920;-65
2022/12/11 14:06:16;;;;;;;;;;;;;;;;;;5034233;28;20331;-65
2022/12/11 14:08:42;;;;;;;;;;;;;;;;;;5031263;28;20362;-65
2022/12/11 14:11:07;;;;;;;;;;;;;;;;;;5030602;28;20483;-66
2022/12/11 14:13:35;;;;;;;;;;;;;;;;;;5038477;28;20717;-66
2022/12/11 14:16:00;;;;;;;;;;;;;;;;;;5038238;28;19925;-65
2022/12/11 14:18:25;;;;;;;;;;;;;;;;;;5033050;28;21779;-65
2022/12/11 14:20:50;;;;;;;;;;;;;;;;;;5036439;28;19977;-65
2022/12/11 14:23:19;;;;;;;;;;;;;;;;;;5051170;28;20015;-65
2022/12/11 14:25:44;;;;;;;;;;;;;;;;;;5051469;28;19920;-65
2022/12/11 14:28:09;;;;;;;;;;;;;;;;;;5040893;28;20290;-66
2022/12/11 14:30:34;;;;;;;;;;;;;;;;;;5022153;28;19920;-66
2022/12/11 14:33:00;;;;;;;;;;;;;;;;;;5033563;28;19913;-65
2022/12/11 14:35:28;;;;;;;;;;;;;;;;;;5052939;28;20009;-65
2022/12/11 14:37:53;;;;;;;;;;;;;;;;;;5048014;28;20558;-64
2022/12/11 14:40:18;;;;;;;;;;;;;;;;;;5040508;28;19916;-64
2022/12/11 14:42:48;;;;;;;;;;;;;;;;;;5038065;28;19920;-65
2022/12/11 14:45:14;;;;;;;;;;;;;;;;;;5050445;28;19916;-65
2022/12/11 14:47:39;;;;;;;;;;;;;;;;;;5048138;28;19935;-65
2022/12/11 14:50:07;;;;;;;;;;;;;;;;;;5046623;28;19990;-65
2022/12/11 14:52:32;;;;;;;;;;;;;;;;;;5034691;28;20396;-65
2022/12/11 14:54:57;;;;;;;;;;;;;;;;;;5046847;28;19924;-66
2022/12/11 14:57:25;;;;;;;;;;;;;;;;;;5035003;28;20584;-65
2022/12/11 14:59:53;;;;;;;;;;;;;;;;;;5046484;28;19969;-65
2022/12/11 15:02:18;;;;;;;;;;;;;;;;;;5050108;28;20009;-65
2022/12/11 15:04:44;;;;;;;;;;;;;;;;;;5047547;28;19920;-65
2022/12/11 15:07:09;;;;;;;;;;;;;;;;;;5048558;28;19920;-65
2022/12/11 15:09:35;;;;;;;;;;;;;;;;;;5020180;28;19927;-65
2022/12/11 15:12:02;;;;;;;;;;;;;;;;;;5036462;28;20369;-69
2022/12/11 15:14:32;;;;;;;;;;;;;;;;;;5053750;28;19920;-65
2022/12/11 15:17:00;;;;;;;;;;;;;;;;;;5030995;28;20019;-65
2022/12/11 15:19:27;;;;;;;;;;;;;;;;;;5031253;28;20279;-65
2022/12/11 15:21:53;;;;;;;;;;;;;;;;;;5046606;28;20168;-65
2022/12/11 15:24:20;;;;;;;;;;;;;;;;;;5027522;28;19928;-65
2022/12/11 15:26:46;;;;;;;;;;;;;;;;;;5047893;28;19931;-66
2022/12/11 15:29:11;;;;;;;;;;;;;;;;;;5028186;28;19916;-65
2022/12/11 15:31:36;;;;;;;;;;;;;;;;;;5034805;28;21558;-65
2022/12/11 15:34:02;;;;;;;;;;;;;;;;;;5033217;28;19921;-65
2022/12/11 15:36:27;;;;;;;;;;;;;;;;;;5046960;28;20587;-66
2022/12/11 15:38:53;;;;;;;;;;;;;;;;;;5028917;28;21121;-65
2022/12/11 15:41:23;;;;;;;;;;;;;;;;;;5035786;28;20259;-65
2022/12/11 15:43:48;;;;;;;;;;;;;;;;;;5050463;28;20026;-65
2022/12/11 15:46:13;;;;;;;;;;;;;;;;;;5041184;28;19927;-64
2022/12/11 15:48:39;;;;;;;;;;;;;;;;;;5046528;28;19957;-65
2022/12/11 15:51:07;;;;;;;;;;;;;;;;;;5031697;28;19924;-65
2022/12/11 15:53:35;;;;;;;;;;;;;;;;;;5048889;28;20513;-65
2022/12/11 15:56:03;;;;;;;;;;;;;;;;;;5048035;28;19927;-65
2022/12/11 15:58:28;;;;;;;;;;;;;;;;;;5017462;28;19916;-64
2022/12/11 16:00:56;;;;;;;;;;;;;;;;;;5032048;28;19924;-64
2022/12/11 16:03:21;;;;;;;;;;;;;;;;;;5033715;28;20277;-65
2022/12/11 16:05:49;;;;;;;;;;;;;;;;;;5047359;28;19920;-65
2022/12/11 16:08:14;;;;;;;;;;;;;;;;;;5044982;28;20633;-65
2022/12/11 16:10:42;;;;;;;;;;;;;;;;;;5048376;28;19967;-65
2022/12/11 16:13:11;;;;;;;;;;;;;;;;;;5032162;28;19920;-65
2022/12/11 16:15:36;;;;;;;;;;;;;;;;;;5044764;28;19927;-64
2022/12/11 16:18:04;;;;;;;;;;;;;;;;;;5032695;28;20457;-65
2022/12/11 16:20:29;;;;;;;;;;;;;;;;;;5028876;28;20074;-65
2022/12/11 16:22:55;;;;;;;;;;;;;;;;;;5048676;28;19936;-65
2022/12/11 16:25:20;;;;;;;;;;;;;;;;;;5034683;28;19924;-65
2022/12/11 16:27:46;;;;;;;;;;;;;;;;;;5048442;28;19922;-64
2022/12/11 16:30:11;;;;;;;;;;;;;;;;;;5048565;28;20904;-64
2022/12/11 16:32:37;;;;;;;;;;;;;;;;;;5029757;28;20126;-65
2022/12/11 16:35:02;;;;;;;;;;;;;;;;;;5031365;28;20139;-65
2022/12/11 16:37:28;;;;;;;;;;;;;;;;;;5045469;28;19924;-66
2022/12/11 16:39:54;;;;;;;;;;;;;;;;;;5044932;28;20571;-64
2022/12/11 16:42:20;;;;;;;;;;;;;;;;;;5045233;28;19928;-65
2022/12/11 16:44:48;;;;;;;;;;;;;;;;;;5046227;28;19982;-64
2022/12/11 16:47:14;;;;;;;;;;;;;;;;;;5047166;28;19926;-63
2022/12/11 16:49:41;;;;;;;;;;;;;;;;;;5026003;28;19924;-65
2022/12/11 16:55:23;;;;;;;;;;;;;;;;;;5042880;28;19928;-65
2022/12/11 16:57:48;;;;;;;;;;;;;;;;;;5044040;28;19924;-65
2022/12/11 17:00:14;;;;;;;;;;;;;;;;;;5036664;28;19932;-65
2022/12/11 17:02:41;;;;;;;;;;;;;;;;;;5037452;28;19924;-66
2022/12/11 17:05:09;;;;;;;;;;;;;;;;;;5037135;28;20371;-65
2022/12/11 17:07:35;;;;;;;;;;;;;;;;;;5043723;28;19927;-65